Time;durP1;ratioP1;P1;durP2;ratioP2;P2;SDS_P1;SDS_P2;PMS_P1;PMS_P2;Temp;Humidity;BMP_temperature;BMP_pressure;BME280_temperature;BME280_humidity;BME280_pressure;Samples;Min_cycle;Max_cycle;Signal;HPM_P1;HPM_P2
2024/03/12 00:00:19;;;;;;;6.00;2.38;;;;;;;;;;5051089;28;20044;-60
2024/03/12 00:02:45;;;;;;;4.95;2.88;;;;;;;;;;5069816;28;20684;-58
2024/03/12 00:05:15;;;;;;;3.42;2.10;;;;;;;;;;5070160;28;20024;-56
2024/03/12 00:07:49;;;;;;;4.70;2.30;;;;;;;;;;5065124;28;20745;-59
2024/03/12 00:10:16;;;;;;;5.68;2.50;;;;;;;;;;5070101;28;20123;-59
2024/03/12 00:12:52;;;;;;;4.32;2.40;;;;;;;;;;5070097;28;20032;-59
2024/03/12 00:15:20;;;;;;;3.70;2.13;;;;;;;;;;5069135;28;20042;-57
2024/03/12 00:17:46;;;;;;;4.40;2.05;;;;;;;;;;5070008;28;20137;-56
2024/03/12 00:20:17;;;;;;;4.90;2.20;;;;;;;;;;5070065;28;20123;-59
2024/03/12 00:22:47;;;;;;;4.65;2.10;;;;;;;;;;5069564;28;20479;-57
2024/03/12 00:25:19;;;;;;;3.95;1.95;;;;;;;;;;5069300;28;20117;-58
2024/03/12 00:27:45;;;;;;;4.88;1.98;;;;;;;;;;5069660;28;20047;-57
2024/03/12 00:30:11;;;;;;;4.20;2.42;;;;;;;;;;5069507;28;20051;-56
2024/03/12 00:32:39;;;;;;;3.88;2.05;;;;;;;;;;5069615;28;20127;-56
2024/03/12 00:35:06;;;;;;;4.35;2.17;;;;;;;;;;5069425;28;20036;-55
2024/03/12 00:37:32;;;;;;;3.75;2.08;;;;;;;;;;5064325;28;20035;-58
2024/03/12 00:39:57;;;;;;;3.85;2.13;;;;;;;;;;5069109;28;20119;-57
2024/03/12 00:42:23;;;;;;;4.07;2.00;;;;;;;;;;5069821;28;20111;-59
2024/03/12 00:44:49;;;;;;;4.43;2.65;;;;;;;;;;5068573;28;20040;-59
2024/03/12 00:47:14;;;;;;;3.72;2.10;;;;;;;;;;5069443;28;20036;-58
2024/03/12 00:49:40;;;;;;;4.25;2.20;;;;;;;;;;5069742;28;20035;-58
2024/03/12 00:52:05;;;;;;;4.50;2.33;;;;;;;;;;5070021;28;20704;-58
2024/03/12 00:54:35;;;;;;;4.03;1.83;;;;;;;;;;5069460;28;20384;-60
2024/03/12 00:57:02;;;;;;;4.47;2.05;;;;;;;;;;5070249;28;20044;-51
2024/03/12 00:59:29;;;;;;;5.38;2.50;;;;;;;;;;5069632;28;20052;-49
2024/03/12 01:01:54;;;;;;;5.50;2.25;;;;;;;;;;5069460;28;20036;-52
2024/03/12 01:04:21;;;;;;;4.45;2.20;;;;;;;;;;5069974;28;20024;-54
2024/03/12 01:06:49;;;;;;;4.32;1.98;;;;;;;;;;5069685;28;20037;-50
2024/03/12 01:09:17;;;;;;;4.55;2.03;;;;;;;;;;5066314;28;20036;-51
2024/03/12 01:11:46;;;;;;;5.55;2.28;;;;;;;;;;5069444;28;20025;-51
2024/03/12 01:14:12;;;;;;;4.45;2.00;;;;;;;;;;5069237;28;20026;-51
2024/03/12 01:16:38;;;;;;;6.43;2.33;;;;;;;;;;5069373;28;20395;-50
2024/03/12 01:19:06;;;;;;;4.28;1.88;;;;;;;;;;5070657;28;20053;-58
2024/03/12 01:21:32;;;;;;;3.80;2.25;;;;;;;;;;5073534;28;20028;-59
2024/03/12 01:23:58;;;;;;;14.43;1.85;;;;;;;;;;5071799;28;20090;-59
2024/03/12 01:26:25;;;;;;;4.10;2.13;;;;;;;;;;5064374;28;20036;-57
2024/03/12 01:28:51;;;;;;;5.53;2.10;;;;;;;;;;5073472;28;20043;-57
2024/03/12 01:31:16;;;;;;;6.15;2.17;;;;;;;;;;5073354;28;20475;-50
2024/03/12 01:33:42;;;;;;;4.15;2.05;;;;;;;;;;5072961;28;20028;-49
2024/03/12 01:36:18;;;;;;;3.70;1.88;;;;;;;;;;5073387;28;20097;-50
2024/03/12 01:38:48;;;;;;;4.72;2.10;;;;;;;;;;5073517;28;20032;-48
2024/03/12 01:41:16;;;;;;;3.72;1.75;;;;;;;;;;5072784;28;20036;-48
2024/03/12 01:43:42;;;;;;;3.33;1.83;;;;;;;;;;5073193;28;20036;-48
2024/03/12 01:46:10;;;;;;;3.03;1.92;;;;;;;;;;5073285;28;20036;-53
2024/03/12 01:48:36;;;;;;;3.28;2.00;;;;;;;;;;5068498;28;20101;-50
2024/03/12 01:51:01;;;;;;;3.97;2.03;;;;;;;;;;5072954;28;20422;-52
2024/03/12 01:53:27;;;;;;;5.50;1.90;;;;;;;;;;5054992;28;20131;-50
2024/03/12 01:55:52;;;;;;;3.53;2.00;;;;;;;;;;5072779;28;20507;-48
2024/03/12 01:58:17;;;;;;;3.97;2.15;;;;;;;;;;5072664;28;20051;-49
2024/03/12 02:00:44;;;;;;;3.25;1.75;;;;;;;;;;5072480;28;20028;-50
2024/03/12 02:03:09;;;;;;;3.30;1.77;;;;;;;;;;5072924;28;20082;-50
2024/03/12 02:05:35;;;;;;;3.60;1.70;;;;;;;;;;5072202;28;20075;-54
2024/03/12 02:08:01;;;;;;;5.07;1.60;;;;;;;;;;5072141;28;20032;-54
2024/03/12 02:10:27;;;;;;;4.47;1.50;;;;;;;;;;5072676;28;20032;-50
2024/03/12 02:12:52;;;;;;;2.78;1.45;;;;;;;;;;5071473;28;20086;-51
2024/03/12 02:15:20;;;;;;;4.25;1.70;;;;;;;;;;5072799;28;20032;-50
2024/03/12 02:17:46;;;;;;;2.65;1.50;;;;;;;;;;5072264;28;20498;-53
2024/03/12 02:20:12;;;;;;;2.88;1.70;;;;;;;;;;5071910;28;20131;-52
2024/03/12 02:22:38;;;;;;;3.58;1.58;;;;;;;;;;5072110;28;20028;-51
2024/03/12 02:25:05;;;;;;;4.07;1.50;;;;;;;;;;5072445;28;20075;-54
2024/03/12 02:27:30;;;;;;;2.70;1.42;;;;;;;;;;5072201;28;20054;-57
2024/03/12 02:29:56;;;;;;;3.53;1.60;;;;;;;;;;5071532;28;20037;-57
2024/03/12 02:32:22;;;;;;;3.97;1.77;;;;;;;;;;5072082;28;20115;-59
2024/03/12 02:34:51;;;;;;;4.20;1.77;;;;;;;;;;5072261;28;20037;-56
2024/03/12 02:37:17;;;;;;;3.00;1.40;;;;;;;;;;5071677;28;20063;-57
2024/03/12 02:39:42;;;;;;;3.20;1.67;;;;;;;;;;5071545;28;20484;-57
2024/03/12 02:42:08;;;;;;;3.25;1.52;;;;;;;;;;5071844;28;20072;-49
2024/03/12 02:44:34;;;;;;;3.45;1.60;;;;;;;;;;5071619;28;20035;-54
2024/03/12 02:47:00;;;;;;;4.50;1.65;;;;;;;;;;5071921;28;20028;-50
2024/03/12 02:49:26;;;;;;;2.53;1.50;;;;;;;;;;5071765;28;20047;-52
2024/03/12 02:51:51;;;;;;;2.60;1.50;;;;;;;;;;5071378;28;20385;-52
2024/03/12 02:54:20;;;;;;;3.00;1.60;;;;;;;;;;5072037;28;20032;-53
2024/03/12 02:56:45;;;;;;;2.58;1.38;;;;;;;;;;5070589;28;20055;-50
2024/03/12 02:59:12;;;;;;;2.50;1.35;;;;;;;;;;5065472;28;20028;-49
2024/03/12 03:01:38;;;;;;;5.18;1.60;;;;;;;;;;5071421;28;20032;-53
2024/03/12 03:04:04;;;;;;;2.30;1.40;;;;;;;;;;5071309;28;20048;-52
2024/03/12 03:06:29;;;;;;;2.10;1.20;;;;;;;;;;5071495;28;20028;-52
2024/03/12 03:08:55;;;;;;;2.72;1.40;;;;;;;;;;5071270;28;20068;-50
2024/03/12 03:11:20;;;;;;;1.98;1.13;;;;;;;;;;5071450;28;20037;-53
2024/03/12 03:13:45;;;;;;;3.70;1.63;;;;;;;;;;5069670;28;20040;-50
2024/03/12 03:16:11;;;;;;;2.80;1.50;;;;;;;;;;5071151;28;20457;-50
2024/03/12 03:18:37;;;;;;;2.40;1.30;;;;;;;;;;5071203;28;20492;-50
2024/03/12 03:21:02;;;;;;;3.17;1.40;;;;;;;;;;5070851;28;20102;-48
2024/03/12 03:23:28;;;;;;;4.32;1.25;;;;;;;;;;5071016;28;20043;-50
2024/03/12 03:25:53;;;;;;;2.47;1.25;;;;;;;;;;5071176;28;20051;-53
2024/03/12 03:28:18;;;;;;;2.28;1.30;;;;;;;;;;5071284;28;20123;-48
2024/03/12 03:30:44;;;;;;;2.35;1.20;;;;;;;;;;5070785;28;20060;-49
2024/03/12 03:33:11;;;;;;;2.95;1.20;;;;;;;;;;5070839;28;20115;-48
2024/03/12 03:35:37;;;;;;;2.35;1.00;;;;;;;;;;5071059;28;20029;-53
2024/03/12 03:38:02;;;;;;;2.20;1.20;;;;;;;;;;5070832;28;20456;-51
2024/03/12 03:40:28;;;;;;;2.30;1.20;;;;;;;;;;5070689;28;20045;-51
2024/03/12 03:42:56;;;;;;;1.83;1.10;;;;;;;;;;5068574;28;20036;-50
2024/03/12 03:45:23;;;;;;;2.30;1.20;;;;;;;;;;5070845;28;20024;-54
2024/03/12 03:47:49;;;;;;;1.88;1.05;;;;;;;;;;5069195;28;20036;-52
2024/03/12 03:50:14;;;;;;;2.35;1.10;;;;;;;;;;5070006;28;20039;-51
2024/03/12 03:52:40;;;;;;;2.10;1.25;;;;;;;;;;5070691;28;20071;-49
2024/03/12 03:55:06;;;;;;;2.38;1.10;;;;;;;;;;5070385;28;20039;-52
2024/03/12 03:57:32;;;;;;;2.08;1.20;;;;;;;;;;5070056;28;20495;-49
2024/03/12 03:59:57;;;;;;;2.65;1.40;;;;;;;;;;5070926;28;20033;-53
2024/03/12 04:02:22;;;;;;;2.88;1.27;;;;;;;;;;5070126;28;20582;-52
2024/03/12 04:04:49;;;;;;;2.78;1.30;;;;;;;;;;5070660;28;20063;-51
2024/03/12 04:07:15;;;;;;;3.10;1.30;;;;;;;;;;5070508;28;20139;-52
2024/03/12 04:09:41;;;;;;;2.10;1.10;;;;;;;;;;5064495;28;20551;-52
2024/03/12 04:12:06;;;;;;;2.33;1.15;;;;;;;;;;5070032;28;20042;-48
2024/03/12 04:14:33;;;;;;;2.22;1.20;;;;;;;;;;5052482;28;20115;-53
2024/03/12 04:16:58;;;;;;;2.28;1.10;;;;;;;;;;5070440;28;20055;-49
2024/03/12 04:19:24;;;;;;;2.03;1.00;;;;;;;;;;5058059;28;20052;-52
2024/03/12 04:21:49;;;;;;;1.98;1.02;;;;;;;;;;5070487;28;20070;-53
2024/03/12 04:24:14;;;;;;;1.63;0.98;;;;;;;;;;5070292;28;20521;-50
2024/03/12 04:26:40;;;;;;;2.28;1.30;;;;;;;;;;5069121;28;20070;-54
2024/03/12 04:29:05;;;;;;;1.98;1.10;;;;;;;;;;5070412;28;20036;-52
2024/03/12 04:31:34;;;;;;;2.00;0.90;;;;;;;;;;5070320;28;20115;-49
2024/03/12 04:34:00;;;;;;;1.95;1.00;;;;;;;;;;5069632;28;20036;-49
2024/03/12 04:36:25;;;;;;;2.15;0.93;;;;;;;;;;5068981;28;20096;-53
2024/03/12 04:38:50;;;;;;;2.22;1.10;;;;;;;;;;5069984;28;20047;-49
2024/03/12 04:41:20;;;;;;;1.88;1.00;;;;;;;;;;5069513;28;20033;-52
2024/03/12 04:43:46;;;;;;;1.80;1.15;;;;;;;;;;5070492;28;20073;-51
2024/03/12 04:46:12;;;;;;;1.90;1.08;;;;;;;;;;5067237;28;20044;-56
2024/03/12 04:48:37;;;;;;;3.65;1.05;;;;;;;;;;5069739;28;20032;-59
2024/03/12 04:51:03;;;;;;;2.55;1.20;;;;;;;;;;5069733;28;20071;-58
2024/03/12 04:53:28;;;;;;;1.88;0.90;;;;;;;;;;5070421;28;20036;-57
2024/03/12 04:55:53;;;;;;;1.88;0.90;;;;;;;;;;5074116;28;20486;-59
2024/03/12 04:58:19;;;;;;;1.92;1.10;;;;;;;;;;5073663;28;20426;-58
2024/03/12 05:00:44;;;;;;;2.80;1.10;;;;;;;;;;5074047;28;20051;-58
2024/03/12 05:03:09;;;;;;;1.85;0.88;;;;;;;;;;5073913;28;20024;-51
2024/03/12 05:05:35;;;;;;;2.53;1.08;;;;;;;;;;5073543;28;20045;-51
2024/03/12 05:08:00;;;;;;;1.52;0.80;;;;;;;;;;5073878;28;20044;-54
2024/03/12 05:10:26;;;;;;;1.55;0.90;;;;;;;;;;5073795;28;20033;-51
2024/03/12 05:12:51;;;;;;;1.98;1.10;;;;;;;;;;5073538;28;20035;-50
2024/03/12 05:15:17;;;;;;;2.17;1.15;;;;;;;;;;5073882;28;20071;-52
2024/03/12 05:17:45;;;;;;;2.25;0.95;;;;;;;;;;5073443;28;20029;-50
2024/03/12 05:20:14;;;;;;;1.95;0.98;;;;;;;;;;5073431;28;20049;-51
2024/03/12 05:22:40;;;;;;;1.88;1.10;;;;;;;;;;5073320;28;20119;-51
2024/03/12 05:25:10;;;;;;;1.98;0.93;;;;;;;;;;5073260;28;20146;-51
2024/03/12 05:27:37;;;;;;;1.73;0.80;;;;;;;;;;5073500;28;20033;-52
2024/03/12 05:30:10;;;;;;;1.73;0.95;;;;;;;;;;5073226;28;20059;-50
2024/03/12 05:32:43;;;;;;;2.72;1.00;;;;;;;;;;5073714;28;20037;-51
2024/03/12 05:35:17;;;;;;;1.45;0.80;;;;;;;;;;5065339;28;20048;-56
2024/03/12 05:38:01;;;;;;;;;;;;;;;;;;5067262;28;20044;-51
2024/03/12 05:40:40;;;;;;;1.70;0.90;;;;;;;;;;5069464;28;19916;-54
2024/03/12 05:48:38;;;;;;;1.70;0.95;;;;;;;;;;5060959;28;20112;-58
2024/03/12 05:51:04;;;;;;;2.40;1.00;;;;;;;;;;5073073;28;20044;-59
2024/03/12 05:53:29;;;;;;;2.13;1.05;;;;;;;;;;5072716;28;20244;-60
2024/03/12 05:55:55;;;;;;;3.55;0.90;;;;;;;;;;5073295;28;20059;-59
2024/03/12 05:58:21;;;;;;;1.90;0.80;;;;;;;;;;5072877;28;20141;-60
2024/03/12 06:00:48;;;;;;;1.83;0.90;;;;;;;;;;5072299;28;20150;-50
2024/03/12 06:03:14;;;;;;;1.90;1.00;;;;;;;;;;5072838;28;20025;-50
2024/03/12 06:05:41;;;;;;;1.83;0.90;;;;;;;;;;5072695;28;20040;-52
2024/03/12 06:08:07;;;;;;;1.52;0.80;;;;;;;;;;5072056;28;20467;-51
2024/03/12 06:10:32;;;;;;;2.47;1.00;;;;;;;;;;5072795;28;20043;-51
2024/03/12 06:12:57;;;;;;;1.85;0.90;;;;;;;;;;5072368;28;20033;-52
2024/03/12 06:15:23;;;;;;;1.90;0.90;;;;;;;;;;5071013;28;20607;-50
2024/03/12 06:17:48;;;;;;;1.20;0.80;;;;;;;;;;5072271;28;20032;-52
2024/03/12 06:20:14;;;;;;;1.52;0.82;;;;;;;;;;5072641;28;20098;-52
2024/03/12 06:22:39;;;;;;;1.92;0.90;;;;;;;;;;5062777;28;20107;-53
2024/03/12 06:25:05;;;;;;;2.33;0.85;;;;;;;;;;5072334;28;20460;-50
2024/03/12 06:27:32;;;;;;;1.60;0.90;;;;;;;;;;5072072;28;20041;-51
2024/03/12 06:29:57;;;;;;;1.65;0.90;;;;;;;;;;5072402;28;20063;-53
2024/03/12 06:32:25;;;;;;;1.80;0.90;;;;;;;;;;5072042;28;20056;-50
2024/03/12 06:34:50;;;;;;;3.67;1.00;;;;;;;;;;5071986;28;20538;-52
2024/03/12 06:37:15;;;;;;;1.55;0.90;;;;;;;;;;5072465;28;20103;-50
2024/03/12 06:39:41;;;;;;;1.10;0.70;;;;;;;;;;5071804;28;20120;-53
2024/03/12 06:42:07;;;;;;;1.65;0.80;;;;;;;;;;5071908;28;20037;-49
2024/03/12 06:44:40;;;;;;;1.50;0.90;;;;;;;;;;5064520;28;20032;-58
2024/03/12 06:47:06;;;;;;;1.20;0.70;;;;;;;;;;5071216;28;20047;-56
2024/03/12 06:49:33;;;;;;;1.10;0.70;;;;;;;;;;5053724;28;20115;-59
2024/03/12 06:51:59;;;;;;;1.00;0.70;;;;;;;;;;5071810;28;20475;-58
2024/03/12 06:54:26;;;;;;;1.40;0.82;;;;;;;;;;5070774;28;20128;-59
2024/03/12 06:56:53;;;;;;;1.25;0.75;;;;;;;;;;5071859;28;20446;-50
2024/03/12 06:59:21;;;;;;;1.23;0.70;;;;;;;;;;5071608;28;20452;-50
2024/03/12 07:01:53;;;;;;;1.30;0.80;;;;;;;;;;5071646;28;20039;-49
2024/03/12 07:04:19;;;;;;;1.13;0.68;;;;;;;;;;5071105;28;20490;-57
2024/03/12 07:06:45;;;;;;;1.48;0.80;;;;;;;;;;5071507;28;20447;-58
2024/03/12 07:09:15;;;;;;;1.60;0.70;;;;;;;;;;5071274;28;20063;-59
2024/03/12 07:11:41;;;;;;;1.00;0.60;;;;;;;;;;5070900;28;20392;-58
2024/03/12 07:14:23;;;;;;;1.35;0.80;;;;;;;;;;5071709;28;20032;-57
2024/03/12 07:16:50;;;;;;;1.50;0.70;;;;;;;;;;5070874;28;20035;-57
2024/03/12 07:19:15;;;;;;;1.48;0.75;;;;;;;;;;5070711;28;20052;-58
2024/03/12 07:21:40;;;;;;;1.20;0.70;;;;;;;;;;5071452;28;20093;-54
2024/03/12 07:24:11;;;;;;;1.38;0.60;;;;;;;;;;5071327;28;20389;-51
2024/03/12 07:26:37;;;;;;;1.10;0.63;;;;;;;;;;5070737;28;20078;-54
2024/03/12 07:29:06;;;;;;;0.98;0.60;;;;;;;;;;5071300;28;20113;-55
2024/03/12 07:31:34;;;;;;;1.67;0.73;;;;;;;;;;5061554;28;20036;-51
2024/03/12 07:34:00;;;;;;;1.77;0.75;;;;;;;;;;5069823;28;20036;-51
2024/03/12 07:36:26;;;;;;;1.20;0.70;;;;;;;;;;5070152;28;20170;-53
2024/03/12 07:38:52;;;;;;;1.60;0.60;;;;;;;;;;5069745;28;20043;-53
2024/03/12 07:41:18;;;;;;;1.13;0.60;;;;;;;;;;5070425;28;20028;-50
2024/03/12 07:43:44;;;;;;;0.93;0.60;;;;;;;;;;5070824;28;20373;-52
2024/03/12 07:46:11;;;;;;;1.30;0.70;;;;;;;;;;5070524;28;20028;-50
2024/03/12 07:48:37;;;;;;;1.05;0.68;;;;;;;;;;5070073;28;20047;-55
2024/03/12 07:51:03;;;;;;;1.48;0.60;;;;;;;;;;5070628;28;20033;-55
2024/03/12 07:53:29;;;;;;;1.08;0.60;;;;;;;;;;5070450;28;20490;-54
2024/03/12 07:55:56;;;;;;;1.60;0.70;;;;;;;;;;5070766;28;20064;-52
2024/03/12 07:58:22;;;;;;;3.78;0.80;;;;;;;;;;5070363;28;20107;-54
2024/03/12 08:00:48;;;;;;;1.27;0.50;;;;;;;;;;5070565;28;20064;-59
2024/03/12 08:03:13;;;;;;;4.82;0.60;;;;;;;;;;5070609;28;20399;-59
2024/03/12 08:05:39;;;;;;;0.60;0.50;;;;;;;;;;5069709;28;20032;-61
2024/03/12 08:08:07;;;;;;;0.88;0.55;;;;;;;;;;5069334;28;20093;-61
2024/03/12 08:10:33;;;;;;;0.88;0.50;;;;;;;;;;5069029;28;20044;-59
2024/03/12 08:12:58;;;;;;;1.00;0.55;;;;;;;;;;5068160;28;20036;-53
2024/03/12 08:15:24;;;;;;;3.10;0.85;;;;;;;;;;5069084;28;20060;-53
2024/03/12 08:17:49;;;;;;;1.33;0.70;;;;;;;;;;5069798;28;20060;-53
2024/03/12 08:20:17;;;;;;;3.33;0.60;;;;;;;;;;5070319;28;20556;-51
2024/03/12 08:22:43;;;;;;;0.82;0.60;;;;;;;;;;5070151;28;20130;-54
2024/03/12 08:25:10;;;;;;;1.00;0.63;;;;;;;;;;5069352;28;20068;-54
2024/03/12 08:27:36;;;;;;;4.85;0.70;;;;;;;;;;5062241;28;20155;-53
2024/03/12 08:30:02;;;;;;;1.15;0.70;;;;;;;;;;5068715;28;20571;-53
2024/03/12 08:32:29;;;;;;;1.00;0.60;;;;;;;;;;5063099;28;20042;-60
2024/03/12 08:34:54;;;;;;;1.02;0.60;;;;;;;;;;5069429;28;20024;-59
2024/03/12 08:37:22;;;;;;;0.65;0.50;;;;;;;;;;5070677;28;20097;-58
2024/03/12 08:39:49;;;;;;;1.70;0.70;;;;;;;;;;5076280;28;20502;-59
2024/03/12 08:42:15;;;;;;;1.17;0.57;;;;;;;;;;5069822;28;20028;-59
2024/03/12 08:44:40;;;;;;;1.77;0.65;;;;;;;;;;5068930;28;20039;-58
2024/03/12 08:47:08;;;;;;;1.45;0.47;;;;;;;;;;5068530;28;20043;-58
2024/03/12 08:49:33;;;;;;;1.75;0.50;;;;;;;;;;5069645;28;20040;-59
2024/03/12 08:51:59;;;;;;;1.30;0.50;;;;;;;;;;5072944;28;20028;-60
2024/03/12 08:54:24;;;;;;;4.80;0.60;;;;;;;;;;5069055;28;20036;-57
2024/03/12 08:56:49;;;;;;;1.08;0.52;;;;;;;;;;5068557;28;20043;-57
2024/03/12 08:59:15;;;;;;;1.40;0.57;;;;;;;;;;5069579;28;20033;-56
2024/03/12 09:01:43;;;;;;;1.60;0.60;;;;;;;;;;5069162;28;20067;-59
2024/03/12 09:04:08;;;;;;;1.15;0.50;;;;;;;;;;5069436;28;20402;-58
2024/03/12 09:06:34;;;;;;;0.80;0.55;;;;;;;;;;5069037;28;20043;-57
2024/03/12 09:09:00;;;;;;;1.00;0.50;;;;;;;;;;5068218;28;20064;-58
2024/03/12 09:11:26;;;;;;;2.95;0.60;;;;;;;;;;5069537;28;20036;-57
2024/03/12 09:13:52;;;;;;;0.63;0.50;;;;;;;;;;5051734;28;20047;-58
2024/03/12 09:16:17;;;;;;;1.05;0.40;;;;;;;;;;5063875;28;20040;-58
2024/03/12 09:18:43;;;;;;;2.20;0.52;;;;;;;;;;5064719;28;20505;-58
2024/03/12 09:21:10;;;;;;;0.93;0.50;;;;;;;;;;5066421;28;20034;-60
2024/03/12 09:23:36;;;;;;;1.05;0.50;;;;;;;;;;5064937;28;20036;-59
2024/03/12 09:26:03;;;;;;;4.10;0.50;;;;;;;;;;5065372;28;20024;-59
2024/03/12 09:28:29;;;;;;;0.85;0.50;;;;;;;;;;5064836;28;20556;-59
2024/03/12 09:30:54;;;;;;;0.85;0.50;;;;;;;;;;5065092;28;20045;-59
2024/03/12 09:33:20;;;;;;;0.50;0.40;;;;;;;;;;5065744;28;20103;-59
2024/03/12 09:35:47;;;;;;;1.15;0.47;;;;;;;;;;5065857;28;20104;-58
2024/03/12 09:38:14;;;;;;;1.00;0.60;;;;;;;;;;5064566;28;20044;-59
2024/03/12 09:40:42;;;;;;;0.98;0.50;;;;;;;;;;5067671;28;20135;-58
2024/03/12 09:43:12;;;;;;;0.60;0.40;;;;;;;;;;5069011;28;20043;-58
2024/03/12 09:45:39;;;;;;;1.08;0.50;;;;;;;;;;5067166;28;20040;-57
2024/03/12 09:48:05;;;;;;;0.90;0.43;;;;;;;;;;5051027;28;20033;-59
2024/03/12 09:50:31;;;;;;;1.23;0.50;;;;;;;;;;5068935;28;20510;-60
2024/03/12 09:52:59;;;;;;;1.05;0.40;;;;;;;;;;5065535;28;20472;-58
2024/03/12 09:55:25;;;;;;;0.93;0.50;;;;;;;;;;5050113;28;20075;-60
2024/03/12 09:57:51;;;;;;;1.63;0.68;;;;;;;;;;5050339;28;20063;-59
2024/03/12 10:00:22;;;;;;;0.65;0.47;;;;;;;;;;5067867;28;20571;-59
2024/03/12 10:02:51;;;;;;;1.17;0.57;;;;;;;;;;5067673;28;20491;-58
2024/03/12 10:05:21;;;;;;;0.43;0.40;;;;;;;;;;5066189;28;20423;-58
2024/03/12 10:08:14;;;;;;;0.65;0.35;;;;;;;;;;5067624;28;20111;-60
2024/03/12 10:10:42;;;;;;;1.03;0.50;;;;;;;;;;5067964;28;20112;-58
2024/03/12 10:13:14;;;;;;;0.55;0.40;;;;;;;;;;5068710;28;20036;-59
2024/03/12 10:15:48;;;;;;;1.00;0.60;;;;;;;;;;5068236;28;20025;-59
2024/03/12 10:18:16;;;;;;;1.13;0.50;;;;;;;;;;5068005;28;20044;-58
2024/03/12 10:20:50;;;;;;;0.35;0.30;;;;;;;;;;5068581;28;20049;-60
2024/03/12 10:23:20;;;;;;;0.68;0.50;;;;;;;;;;5068549;28;20044;-59
2024/03/12 10:25:47;;;;;;;0.60;0.35;;;;;;;;;;5067656;28;20044;-58
2024/03/12 10:28:16;;;;;;;0.30;0.30;;;;;;;;;;5067749;28;20037;-59
2024/03/12 10:30:42;;;;;;;1.70;0.50;;;;;;;;;;5050623;28;20151;-59
2024/03/12 10:33:13;;;;;;;0.45;0.40;;;;;;;;;;5067528;28;20055;-59
2024/03/12 10:35:41;;;;;;;0.68;0.47;;;;;;;;;;5067959;28;20032;-59
2024/03/12 10:38:07;;;;;;;1.40;0.40;;;;;;;;;;5067112;28;20071;-59
2024/03/12 10:40:32;;;;;;;0.47;0.35;;;;;;;;;;5067356;28;20055;-59
2024/03/12 10:42:58;;;;;;;0.35;0.35;;;;;;;;;;5067156;28;20094;-59
2024/03/12 10:45:24;;;;;;;0.85;0.40;;;;;;;;;;5049034;28;20598;-58
2024/03/12 10:47:50;;;;;;;1.48;0.60;;;;;;;;;;5052265;28;20089;-59
2024/03/12 10:50:16;;;;;;;0.52;0.40;;;;;;;;;;5059551;28;20064;-58
2024/03/12 10:52:45;;;;;;;0.40;0.38;;;;;;;;;;5058346;28;20037;-60
2024/03/12 10:55:20;;;;;;;0.40;0.40;;;;;;;;;;5065775;28;20028;-60
2024/03/12 10:57:50;;;;;;;0.52;0.40;;;;;;;;;;5059972;28;20034;-58
2024/03/12 11:00:20;;;;;;;1.42;0.70;;;;;;;;;;5065052;28;20503;-59
2024/03/12 11:02:48;;;;;;;0.40;0.38;;;;;;;;;;5065699;28;20071;-58
2024/03/12 11:05:17;;;;;;;1.23;0.60;;;;;;;;;;5066073;28;20033;-57
2024/03/12 11:07:44;;;;;;;1.05;0.50;;;;;;;;;;5047746;28;20132;-57
2024/03/12 11:10:12;;;;;;;0.50;0.38;;;;;;;;;;5061575;28;20064;-59
2024/03/12 11:12:37;;;;;;;0.45;0.40;;;;;;;;;;5044498;28;20111;-58
2024/03/12 11:15:03;;;;;;;0.70;0.30;;;;;;;;;;5065438;28;20166;-58
2024/03/12 11:17:31;;;;;;;1.75;0.50;;;;;;;;;;5065477;28;20123;-60
2024/03/12 11:20:01;;;;;;;4.05;0.40;;;;;;;;;;5067014;28;20060;-58
2024/03/12 11:22:27;;;;;;;0.85;0.50;;;;;;;;;;5064972;28;20097;-59
2024/03/12 11:24:52;;;;;;;1.17;0.60;;;;;;;;;;5067913;28;20036;-57
2024/03/12 11:27:25;;;;;;;0.45;0.40;;;;;;;;;;5066754;28;20036;-58
2024/03/12 11:30:03;;;;;;;1.10;0.50;;;;;;;;;;5063667;28;20041;-59
2024/03/12 11:32:40;;;;;;;0.80;0.50;;;;;;;;;;5066423;28;20288;-59
2024/03/12 11:35:08;;;;;;;0.47;0.40;;;;;;;;;;5061122;28;20040;-58
2024/03/12 11:37:35;;;;;;;1.10;0.47;;;;;;;;;;5065612;28;20515;-60
2024/03/12 11:40:30;;;;;;;0.40;0.40;;;;;;;;;;5066116;28;20036;-59
2024/03/12 11:42:56;;;;;;;0.40;0.40;;;;;;;;;;5054007;28;20105;-57
2024/03/12 11:45:39;;;;;;;0.65;0.45;;;;;;;;;;5065792;28;20028;-58
2024/03/12 11:48:07;;;;;;;0.40;0.40;;;;;;;;;;5060916;28;20120;-59
2024/03/12 11:50:35;;;;;;;1.15;0.50;;;;;;;;;;5066258;28;20032;-60
2024/03/12 11:53:33;;;;;;;0.98;0.50;;;;;;;;;;5065985;28;20033;-59
2024/03/12 11:56:11;;;;;;;0.88;0.50;;;;;;;;;;5052589;28;20557;-58
2024/03/12 11:58:44;;;;;;;0.50;0.30;;;;;;;;;;5065964;28;20051;-58
2024/03/12 12:01:13;;;;;;;1.13;0.40;;;;;;;;;;5065750;28;20033;-58
2024/03/12 12:03:39;;;;;;;0.55;0.40;;;;;;;;;;5047739;28;20044;-58
2024/03/12 12:06:06;;;;;;;1.00;0.57;;;;;;;;;;5065831;28;20028;-59
2024/03/12 12:08:32;;;;;;;1.00;0.50;;;;;;;;;;5065161;28;20044;-59
2024/03/12 12:11:12;;;;;;;0.65;0.40;;;;;;;;;;5064744;28;20043;-57
2024/03/12 12:13:41;;;;;;;0.50;0.40;;;;;;;;;;5064061;28;20068;-58
2024/03/12 12:16:07;;;;;;;0.68;0.40;;;;;;;;;;5063580;28;20469;-58
2024/03/12 12:18:34;;;;;;;1.17;0.50;;;;;;;;;;5064169;28;20688;-60
2024/03/12 12:21:11;;;;;;;0.82;0.50;;;;;;;;;;5065522;28;20102;-58
2024/03/12 12:23:36;;;;;;;0.40;0.35;;;;;;;;;;5064501;28;20093;-58
2024/03/12 12:26:05;;;;;;;0.73;0.50;;;;;;;;;;5063725;28;20032;-59
2024/03/12 12:28:31;;;;;;;1.45;0.90;;;;;;;;;;5064076;28;20118;-59
2024/03/12 12:31:00;;;;;;;0.40;0.40;;;;;;;;;;5063382;28;20047;-58
2024/03/12 12:33:28;;;;;;;1.75;0.50;;;;;;;;;;5049960;28;20032;-59
2024/03/12 12:35:55;;;;;;;1.10;0.60;;;;;;;;;;5062850;28;20043;-60
2024/03/12 12:38:21;;;;;;;0.93;0.50;;;;;;;;;;5054010;28;20051;-60
2024/03/12 12:40:48;;;;;;;1.63;0.55;;;;;;;;;;5044750;28;20539;-58
2024/03/12 12:43:16;;;;;;;0.60;0.45;;;;;;;;;;5066571;28;20032;-59
2024/03/12 12:45:43;;;;;;;1.15;0.50;;;;;;;;;;5045514;28;20040;-59
2024/03/12 12:48:11;;;;;;;0.85;0.40;;;;;;;;;;5064764;28;20020;-58
2024/03/12 12:50:36;;;;;;;0.73;0.47;;;;;;;;;;5059939;28;20037;-58
2024/03/12 12:53:04;;;;;;;1.30;0.60;;;;;;;;;;5053334;28;20033;-58
2024/03/12 12:55:30;;;;;;;1.20;0.50;;;;;;;;;;5063766;28;20028;-60
2024/03/12 12:58:02;;;;;;;1.40;0.60;;;;;;;;;;5062671;28;20055;-59
2024/03/12 13:00:28;;;;;;;0.77;0.40;;;;;;;;;;5059409;28;20476;-60
2024/03/12 13:03:16;;;;;;;1.00;0.60;;;;;;;;;;5064987;28;20041;-58
2024/03/12 13:05:44;;;;;;;1.00;0.50;;;;;;;;;;5064589;28;20039;-59
2024/03/12 13:08:22;;;;;;;0.30;0.30;;;;;;;;;;5065353;28;20501;-58
2024/03/12 13:11:18;;;;;;;0.50;0.40;;;;;;;;;;5065467;28;20149;-59
2024/03/12 13:13:44;;;;;;;0.52;0.40;;;;;;;;;;5055775;28;20131;-59
2024/03/12 13:16:17;;;;;;;0.43;0.40;;;;;;;;;;5065238;28;20044;-58
2024/03/12 13:18:47;;;;;;;0.20;0.20;;;;;;;;;;5068276;28;20036;-58
2024/03/12 13:21:14;;;;;;;0.93;0.50;;;;;;;;;;5068879;28;20032;-57
2024/03/12 13:23:45;;;;;;;0.30;0.30;;;;;;;;;;5068374;28;20028;-57
2024/03/12 13:26:15;;;;;;;0.68;0.45;;;;;;;;;;5068808;28;20029;-59
2024/03/12 13:28:47;;;;;;;0.85;0.45;;;;;;;;;;5058496;28;20040;-59
2024/03/12 13:31:15;;;;;;;0.43;0.28;;;;;;;;;;5068935;28;20036;-58
2024/03/12 13:33:41;;;;;;;0.30;0.28;;;;;;;;;;5066146;28;20115;-59
2024/03/12 13:36:07;;;;;;;0.85;0.40;;;;;;;;;;5069360;28;20132;-59
2024/03/12 13:38:32;;;;;;;0.77;0.40;;;;;;;;;;5068125;28;20044;-59
2024/03/12 13:40:58;;;;;;;0.90;0.47;;;;;;;;;;5068326;28;20051;-59
2024/03/12 13:43:26;;;;;;;0.77;0.40;;;;;;;;;;5067286;28;20029;-59
2024/03/12 13:45:57;;;;;;;0.68;0.50;;;;;;;;;;5067605;28;20032;-57
2024/03/12 13:48:30;;;;;;;1.08;0.60;;;;;;;;;;5068817;28;20037;-59
2024/03/12 13:51:00;;;;;;;0.55;0.38;;;;;;;;;;5068549;28;20028;-59
2024/03/12 13:53:29;;;;;;;0.52;0.43;;;;;;;;;;5070372;28;20032;-60
2024/03/12 13:55:58;;;;;;;0.55;0.40;;;;;;;;;;5057665;28;20033;-60
2024/03/12 13:58:24;;;;;;;0.30;0.30;;;;;;;;;;5064761;28;20041;-60
2024/03/12 14:00:51;;;;;;;0.63;0.40;;;;;;;;;;5068134;28;20414;-60
2024/03/12 14:03:17;;;;;;;0.85;0.45;;;;;;;;;;5069560;28;20082;-58
2024/03/12 14:05:46;;;;;;;1.17;0.40;;;;;;;;;;5069510;28;20067;-59
2024/03/12 14:08:14;;;;;;;0.98;0.40;;;;;;;;;;5067651;28;20033;-59
2024/03/12 14:10:40;;;;;;;0.60;0.40;;;;;;;;;;5067594;28;20028;-58
2024/03/12 14:13:05;;;;;;;0.65;0.40;;;;;;;;;;5068522;28;20882;-59
2024/03/12 14:15:32;;;;;;;0.60;0.40;;;;;;;;;;5068774;28;20041;-60
2024/03/12 14:17:59;;;;;;;0.38;0.30;;;;;;;;;;5069083;28;20087;-58
2024/03/12 14:20:25;;;;;;;0.90;0.50;;;;;;;;;;5068700;28;20091;-58
2024/03/12 14:22:52;;;;;;;0.52;0.40;;;;;;;;;;5068902;28;20108;-58
2024/03/12 14:25:18;;;;;;;1.05;0.82;;;;;;;;;;5068349;28;20081;-59
2024/03/12 14:27:43;;;;;;;0.57;0.32;;;;;;;;;;5067813;28;20045;-58
2024/03/12 14:30:09;;;;;;;0.32;0.28;;;;;;;;;;5068946;28;20040;-59
2024/03/12 14:32:35;;;;;;;0.63;0.40;;;;;;;;;;5070001;28;20396;-59
2024/03/12 14:35:01;;;;;;;0.30;0.30;;;;;;;;;;5068479;28;20476;-60
2024/03/12 14:37:27;;;;;;;0.65;0.45;;;;;;;;;;5068890;28;20097;-57
2024/03/12 14:39:53;;;;;;;0.43;0.40;;;;;;;;;;5068660;28;20040;-58
2024/03/12 14:42:18;;;;;;;0.60;0.40;;;;;;;;;;5069282;28;20047;-58
2024/03/12 14:44:44;;;;;;;0.82;0.40;;;;;;;;;;5050282;28;20427;-60
2024/03/12 14:47:09;;;;;;;0.45;0.40;;;;;;;;;;5069929;28;20115;-57
2024/03/12 14:49:36;;;;;;;0.93;0.63;;;;;;;;;;5069238;28;20074;-59